Overview Statistics Trail Chart Weather Telemetry Raw packets
 

This is the latest recevied weather packets stored in our database for station/object K7MT-WX. If no packets are shown the sender has not sent any weather packets the latest 10 day(s).

<< 32 33 34 35 36 37 38 >>
Time Temp. Humidity Pressure Rain* Wind** Luminosity Snow
1787884169 26.67° C 35% 1012.5 hPa 0 mm - - -
1787883269 26.67° C 38% 1012.4 hPa 0 mm - - -
1787882369 27.22° C 35% 1012.7 hPa 0 mm - - -
1787881469 27.22° C 39% 1012.4 hPa 0 mm - - -
1787880569 26.67° C 42% 1011.8 hPa 0 mm - - -
1787879669 27.78° C 40% 1011.5 hPa 0 mm - - -
1787878769 27.78° C 40% 1011.4 hPa 0 mm - - -
1787877869 30° C 27% 1011.3 hPa 0 mm - - -
1787876969 31.11° C 23% 1010.9 hPa 0 mm - - -
1787876069 31.11° C 24% 1011.1 hPa 0 mm - - -
1787875169 31.67° C 23% 1011.3 hPa 0 mm - - -
1787874269 31.67° C 24% 1011.1 hPa 0 mm - - -
1787873369 31.67° C 25% 1011.5 hPa 0 mm - - -
1787872439 31.11° C 25% 1012 hPa 0 mm - - -
1787871539 29.44° C 37% 1012.1 hPa 0 mm - - -
1787870639 31.67° C 27% 1012.6 hPa 0 mm - - -
1787869709 32.22° C 24% 1012 hPa 0 mm - - -
1787868809 32.78° C 24% 1012.1 hPa 0 mm - - -
1787867909 32.78° C 25% 1012.6 hPa 0 mm - - -
1787867009 32.22° C 30% 1012.7 hPa 0 mm - - -
1787866109 32.22° C 27% 1013.1 hPa 0 mm - - -
1787865209 32.22° C 28% 1013.4 hPa 0 mm - - -
1787864309 30.56° C 33% 1014.1 hPa 0 mm - - -
1787863409 28.89° C 37% 1014.5 hPa 0 mm - - -
1787862509 27.78° C 42% 1014.9 hPa 0 mm - - -

* Rain latest hour (hover to see other rain measurements)
** Current wind speed in m/s (hover to see current wind gust speed)